Time;durP1;ratioP1;P1;durP2;ratioP2;P2;SDS_P1;SDS_P2;PMS_P1;PMS_P2;Temp;Humidity;BMP_temperature;BMP_pressure;BME280_temperature;BME280_humidity;BME280_pressure;Samples;Min_cycle;Max_cycle;Signal;HPM_P1;HPM_P2
2022/01/14 09:05:24;;;;;;;19.90;8.33;;;;;;;-0.08;100.00;100743.47;5122717;27;21402;-87
2022/01/14 09:07:53;;;;;;;16.03;8.50;;;;;;;0.59;100.00;100742.38;5071461;28;38932;-89
2022/01/14 09:10:21;;;;;;;13.43;8.07;;;;;;;1.03;100.00;100724.41;5072120;28;40732;-88
2022/01/14 09:12:49;;;;;;;12.43;7.03;;;;;;;1.40;100.00;100714.16;5073774;28;41787;-84
2022/01/14 09:15:17;;;;;;;16.07;8.30;;;;;;;1.70;98.75;100726.47;5098049;28;43161;-85
2022/01/14 09:17:45;;;;;;;16.17;7.83;;;;;;;2.03;95.07;100743.97;5076344;28;38924;-87
2022/01/14 09:20:14;;;;;;;14.23;8.17;;;;;;;2.21;92.56;100749.25;5070262;28;41070;-89
2022/01/14 09:22:51;;;;;;;13.80;6.87;;;;;;;2.25;91.25;100716.13;5051138;28;42040;-88
2022/01/14 09:25:20;;;;;;;13.67;7.00;;;;;;;2.80;89.53;100743.16;5052208;28;42136;-85
2022/01/14 09:27:50;;;;;;;13.33;8.23;;;;;;;3.04;88.14;100753.59;5062270;28;38756;-90
2022/01/14 09:30:18;;;;;;;13.00;7.63;;;;;;;3.11;86.34;100733.50;5068225;28;40921;-89
2022/01/14 09:32:46;;;;;;;13.73;7.80;;;;;;;3.35;85.67;100740.41;5065329;28;42735;-89
2022/01/14 09:35:14;;;;;;;14.77;9.10;;;;;;;3.56;84.45;100724.66;5071353;28;42260;-89
2022/01/14 09:37:44;;;;;;;18.77;9.07;;;;;;;4.05;83.73;100750.59;5070570;28;39091;-85
2022/01/14 09:40:16;;;;;;;14.23;8.27;;;;;;;4.09;81.94;100718.22;5071588;28;41868;-85
2022/01/14 09:42:47;;;;;;;13.93;7.43;;;;;;;4.48;81.41;100754.66;5070624;28;42894;-87
2022/01/14 09:45:15;;;;;;;12.77;7.47;;;;;;;4.40;80.10;100721.50;5070931;28;41230;-86
2022/01/14 09:47:46;;;;;;;15.27;8.20;;;;;;;5.07;79.56;100755.91;5070447;28;39238;-86
2022/01/14 09:50:14;;;;;;;14.33;7.23;;;;;;;5.15;78.13;100751.47;5071298;28;40866;-88
2022/01/14 09:52:42;;;;;;;14.03;7.37;;;;;;;5.24;77.72;100753.13;5070231;28;42746;-86
2022/01/14 09:55:10;;;;;;;15.77;8.33;;;;;;;5.07;77.12;100750.66;5071100;28;41627;-86
2022/01/14 09:57:38;;;;;;;13.50;8.03;;;;;;;4.99;76.74;100736.72;5070434;28;38896;-87
2022/01/14 10:00:16;;;;;;;14.30;7.83;;;;;;;5.16;75.93;100774.22;5070409;28;40766;-89
2022/01/14 10:02:45;;;;;;;20.33;9.40;;;;;;;4.93;74.47;100715.81;5081780;28;43988;-92
2022/01/14 10:05:32;;;;;;;15.10;8.83;;;;;;;5.30;73.93;100776.72;5070647;28;41051;-87
2022/01/14 10:08:17;;;;;;;20.13;10.33;;;;;;;5.29;73.29;100783.72;5069944;28;39973;-90
2022/01/14 10:10:55;;;;;;;19.37;9.33;;;;;;;5.27;73.78;100785.50;5071020;28;40424;-88
2022/01/14 10:13:27;;;;;;;13.17;8.53;;;;;;;5.25;72.74;100787.25;5066575;28;41460;-88
2022/01/14 10:16:03;;;;;;;21.93;10.17;;;;;;;5.30;71.99;100785.47;5040399;28;42008;-88
2022/01/14 10:18:33;;;;;;;18.60;9.23;;;;;;;5.31;71.42;100771.44;5036501;28;38698;-87
2022/01/14 10:21:02;;;;;;;18.50;9.63;;;;;;;5.53;71.03;100794.84;5037632;28;40552;-85
2022/01/14 10:23:44;;;;;;;18.17;9.00;;;;;;;5.63;70.74;100771.06;5052602;28;41529;-86
2022/01/14 10:26:12;;;;;;;20.77;9.80;;;;;;;5.88;70.40;100748.00;5053690;28;41575;-88
2022/01/14 10:28:45;;;;;;;13.63;8.83;;;;;;;5.94;69.77;100778.59;5036519;28;39133;-88
2022/01/14 10:31:13;;;;;;;20.00;9.80;;;;;;;5.76;69.35;100784.94;5038291;28;40925;-88
2022/01/14 10:33:41;;;;;;;17.77;10.13;;;;;;;5.53;69.89;100745.78;5036114;28;41908;-88
2022/01/14 10:36:20;;;;;;;19.40;9.60;;;;;;;5.78;70.10;100762.13;5053612;28;42227;-87
2022/01/14 10:38:48;;;;;;;16.63;9.40;;;;;;;5.54;69.36;100721.25;5056073;28;38820;-88
2022/01/14 10:41:18;;;;;;;21.03;9.60;;;;;;;5.97;69.03;100703.16;5055925;28;41071;-88
2022/01/14 10:43:47;;;;;;;20.00;9.67;;;;;;;7.01;67.60;100756.78;5051919;28;41688;-88
2022/01/14 10:46:15;;;;;;;19.30;10.17;;;;;;;8.47;65.32;100751.16;5053392;28;42545;-87
2022/01/14 10:48:55;;;;;;;17.80;9.83;;;;;;;11.33;59.09;100787.78;5036070;28;39616;-88
2022/01/14 10:51:23;;;;;;;14.87;9.47;;;;;;;13.24;54.20;100767.03;5036827;28;41055;-89
2022/01/14 10:53:54;;;;;;;16.40;8.87;;;;;;;15.12;49.62;100800.91;5055332;28;42147;-90
2022/01/14 10:56:25;;;;;;;13.40;9.63;;;;;;;16.65;46.54;100784.69;5056856;28;41112;-89
2022/01/14 10:58:58;;;;;;;14.63;9.47;;;;;;;18.35;43.16;100792.25;5056507;28;38891;-89
2022/01/14 11:01:28;;;;;;;15.67;9.30;;;;;;;20.20;40.07;100824.50;5052793;28;40762;-93
2022/01/14 11:03:57;;;;;;;14.77;10.90;;;;;;;21.91;37.58;100833.28;5035802;28;41792;-89
2022/01/14 11:06:26;;;;;;;14.27;9.97;;;;;;;23.42;34.37;100851.59;5055120;28;41530;-89
2022/01/14 11:08:58;;;;;;;13.70;10.67;;;;;;;24.66;31.55;100865.09;5056104;28;39097;-90
2022/01/14 11:11:26;;;;;;;11.63;10.10;;;;;;;24.74;30.55;100839.16;5056472;28;41335;-92
2022/01/14 11:13:56;;;;;;;12.80;10.70;;;;;;;23.86;31.98;100818.91;5072962;28;42623;-92
2022/01/14 11:16:24;;;;;;;14.93;11.23;;;;;;;22.50;31.23;100801.59;5072755;28;43150;-89
2022/01/14 11:18:53;;;;;;;12.97;10.40;;;;;;;21.23;32.06;100824.16;5039791;28;39027;-89
2022/01/14 11:24:06;;;;;;;14.10;10.33;;;;;;;17.17;38.28;100776.31;5052236;28;42857;-87
2022/01/14 11:26:37;;;;;;;15.13;10.37;;;;;;;16.09;40.30;100743.22;5035804;28;41011;-86
2022/01/14 11:29:11;;;;;;;15.37;10.87;;;;;;;16.12;41.42;100739.53;5051800;28;40202;-89
2022/01/14 11:31:40;;;;;;;13.47;9.87;;;;;;;16.81;40.15;100721.28;5035901;28;41316;-88
2022/01/14 11:34:10;;;;;;;13.87;9.40;;;;;;;17.43;39.23;100740.78;5052104;28;41792;-89
2022/01/14 11:36:50;;;;;;;18.27;10.40;;;;;;;18.09;37.95;100724.19;5035585;28;42180;-93
2022/01/14 11:39:20;;;;;;;13.77;10.73;;;;;;;18.58;38.15;100732.63;5036219;28;40092;-90
2022/01/14 11:41:54;;;;;;;15.90;10.90;;;;;;;17.69;36.72;100700.84;5038699;28;41163;-90
2022/01/14 11:44:55;;;;;;;14.47;10.07;;;;;;;17.45;39.02;100749.59;5055406;28;42807;-87
2022/01/14 11:47:59;;;;;;;13.47;10.33;;;;;;;16.39;41.20;100713.94;5072133;28;41101;-90
2022/01/14 11:50:51;;;;;;;13.67;8.73;;;;;;;15.33;42.83;100719.75;5015680;28;39872;-89
2022/01/14 11:53:40;;;;;;;13.83;9.00;;;;;;;14.96;43.83;100686.94;5055306;28;41115;-88
2022/01/14 11:56:24;;;;;;;14.27;8.90;;;;;;;15.54;43.50;100683.91;5036760;28;41767;-88
2022/01/14 11:58:52;;;;;;;13.20;8.73;;;;;;;16.00;40.65;100700.97;5035983;28;42639;-91
2022/01/14 12:01:38;;;;;;;15.60;9.83;;;;;;;17.12;40.01;100698.94;5053038;28;40561;-90
2022/01/14 12:04:05;;;;;;;14.53;9.57;;;;;;;18.09;37.94;100723.31;5035871;28;41862;-90
2022/01/14 12:06:59;;;;;;;13.57;9.60;;;;;;;18.66;36.61;100726.78;5042818;28;41821;-92
2022/01/14 12:09:33;;;;;;;12.17;8.50;;;;;;;20.58;34.58;100721.31;5036401;28;41323;-92
2022/01/14 12:12:23;;;;;;;13.47;9.97;;;;;;;21.68;32.43;100754.19;5041298;28;39115;-89
2022/01/14 12:14:56;;;;;;;12.53;9.10;;;;;;;21.29;32.12;100740.13;5057243;28;40690;-91
2022/01/14 12:17:34;;;;;;;15.23;9.40;;;;;;;21.21;32.12;100744.38;5055489;28;42749;-89
2022/01/14 12:20:10;;;;;;;12.93;9.60;;;;;;;21.69;31.51;100754.06;5072021;28;42870;-91
2022/01/14 12:22:38;;;;;;;14.03;9.83;;;;;;;22.25;30.62;100756.81;5055147;28;40179;-86
2022/01/14 12:25:08;;;;;;;11.70;9.33;;;;;;;23.47;30.36;100752.00;5069234;28;42980;-87
2022/01/14 12:27:48;;;;;;;11.33;9.27;;;;;;;24.94;28.75;100763.22;5034683;28;42029;-90
2022/01/14 12:30:25;;;;;;;13.13;10.20;;;;;;;26.31;28.00;100743.81;5035477;28;41380;-88
2022/01/14 12:32:55;;;;;;;11.47;9.33;;;;;;;27.33;26.67;100742.50;5034864;28;40299;-87
2022/01/14 12:35:29;;;;;;;12.33;9.67;;;;;;;28.34;26.08;100748.28;5034827;28;41159;-85
2022/01/14 12:38:00;;;;;;;11.80;9.40;;;;;;;28.99;24.27;100748.50;5046650;28;42181;-87
2022/01/14 12:40:37;;;;;;;9.17;7.77;;;;;;;29.44;24.06;100726.19;5071637;28;41156;-85
2022/01/14 12:43:07;;;;;;;10.97;9.87;;;;;;;29.79;23.30;100720.34;5071249;28;39259;-90
2022/01/14 12:45:40;;;;;;;11.13;9.50;;;;;;;30.23;22.92;100711.66;5050961;28;40623;-89
2022/01/14 12:48:31;;;;;;;9.33;8.40;;;;;;;30.67;23.09;100722.88;5034645;28;42817;-88
2022/01/14 12:51:11;;;;;;;9.00;8.07;;;;;;;30.55;23.30;100696.97;5036081;28;40880;-88
2022/01/14 12:53:50;;;;;;;9.40;8.30;;;;;;;30.60;23.11;100702.78;5053218;28;38599;-88
2022/01/14 12:56:20;;;;;;;9.13;7.97;;;;;;;30.20;23.55;100690.13;5054814;28;41051;-89
2022/01/14 12:58:53;;;;;;;10.60;8.27;;;;;;;29.46;24.17;100683.19;5071635;28;42859;-88
2022/01/14 13:01:26;;;;;;;10.83;9.73;;;;;;;28.69;25.01;100670.84;5054741;28;40824;-89
2022/01/14 13:03:57;;;;;;;10.97;8.43;;;;;;;28.49;24.54;100678.50;5033609;28;39223;-89
2022/01/14 13:06:25;;;;;;;9.43;7.53;;;;;;;28.37;24.58;100660.75;5049201;28;41058;-89
2022/01/14 13:08:55;;;;;;;8.53;7.63;;;;;;;27.95;25.62;100661.59;5051062;28;42192;-87
2022/01/14 13:11:25;;;;;;;9.83;8.20;;;;;;;27.50;26.19;100657.25;5035556;28;41073;-88
2022/01/14 13:14:02;;;;;;;8.33;6.83;;;;;;;27.12;26.23;100663.09;5049938;28;38915;-88
2022/01/14 13:16:44;;;;;;;8.27;6.97;;;;;;;26.49;27.14;100641.44;5034140;28;41035;-86
2022/01/14 13:19:24;;;;;;;7.00;6.20;;;;;;;25.60;27.35;100634.88;5034916;28;41801;-88
2022/01/14 13:21:52;;;;;;;7.67;6.63;;;;;;;23.62;28.94;100600.06;5048202;28;42211;-89
2022/01/14 13:24:21;;;;;;;6.30;4.87;;;;;;;22.22;30.19;100635.59;5054270;28;39157;-89
2022/01/14 13:27:07;;;;;;;7.13;4.83;;;;;;;20.58;31.66;100600.16;5053855;28;40602;-84
2022/01/14 13:29:37;;;;;;;7.30;4.77;;;;;;;19.58;33.44;100620.09;5054375;28;41790;-87
2022/01/14 13:32:06;;;;;;;5.43;4.20;;;;;;;18.59;34.59;100608.22;5071391;28;43149;-86
2022/01/14 13:34:35;;;;;;;5.97;4.00;;;;;;;17.75;35.65;100609.34;5070004;28;39045;-85
2022/01/14 13:37:04;;;;;;;5.33;4.40;;;;;;;17.03;37.02;100600.44;5071333;28;41859;-83
2022/01/14 13:39:31;;;;;;;7.73;5.70;;;;;;;16.29;38.47;100578.16;5070536;28;41873;-87
2022/01/14 13:41:59;;;;;;;11.80;7.50;;;;;;;15.69;40.15;100588.75;5071369;28;42382;-85
2022/01/14 13:44:33;;;;;;;11.23;7.07;;;;;;;14.99;41.40;100563.19;5054318;28;38919;-87
2022/01/14 13:47:07;;;;;;;11.20;7.40;;;;;;;14.47;43.09;100573.06;5049849;28;42040;-86
2022/01/14 13:49:36;;;;;;;14.37;8.43;;;;;;;13.70;44.68;100560.00;5034520;28;41920;-89
2022/01/14 13:52:11;;;;;;;11.50;8.30;;;;;;;13.06;46.03;100562.09;5057703;28;42160;-88
2022/01/14 13:54:40;;;;;;;11.80;8.47;;;;;;;12.33;47.07;100542.31;5073239;28;40265;-85
2022/01/14 13:57:09;;;;;;;11.30;7.73;;;;;;;11.93;48.06;100571.44;5073592;28;40330;-83
2022/01/14 13:59:37;;;;;;;14.67;8.67;;;;;;;11.44;48.33;100562.75;5073598;28;43107;-82
2022/01/14 14:02:07;;;;;;;11.33;8.37;;;;;;;10.85;49.50;100541.13;5056757;28;41431;-89
2022/01/14 14:04:44;;;;;;;16.80;8.83;;;;;;;10.53;50.67;100559.03;5053276;28;38867;-84
2022/01/14 14:07:12;;;;;;;13.73;8.10;;;;;;;9.99;51.28;100540.59;5052191;28;42739;-89
2022/01/14 14:09:46;;;;;;;12.13;7.10;;;;;;;9.71;51.64;100552.06;5054104;28;41881;-85
2022/01/14 14:12:39;;;;;;;12.63;7.43;;;;;;;9.33;52.86;100547.09;5057592;28;43437;-87
2022/01/14 14:18:03;;;;;;;11.90;6.33;;;;;;;8.60;54.83;100554.53;5056372;28;41239;-85
2022/01/14 14:20:39;;;;;;;12.00;7.43;;;;;;;8.24;56.67;100541.34;5057265;28;41870;-84
2022/01/14 14:23:17;;;;;;;11.83;7.17;;;;;;;7.89;56.77;100538.75;5072965;28;42258;-88
2022/01/14 14:25:45;;;;;;;8.57;5.63;;;;;;;7.67;58.42;100550.69;5057195;28;39289;-88
2022/01/14 14:28:12;;;;;;;13.07;6.97;;;;;;;7.53;58.44;100557.19;5052365;28;40461;-87
2022/01/14 14:30:46;;;;;;;11.80;6.93;;;;;;;7.24;58.92;100533.25;5053844;28;43717;-88
2022/01/14 14:33:13;;;;;;;10.43;6.20;;;;;;;6.93;60.48;100524.25;5052762;28;42350;-87
2022/01/14 14:35:44;;;;;;;10.67;6.40;;;;;;;6.85;60.81;100543.72;5060320;28;38977;-86
2022/01/14 14:38:17;;;;;;;10.10;6.17;;;;;;;6.66;61.29;100550.28;5056287;28;41331;-88
2022/01/14 14:40:47;;;;;;;9.80;5.67;;;;;;;6.45;61.86;100535.72;5057278;28;41741;-87
2022/01/14 14:43:14;;;;;;;11.33;6.73;;;;;;;6.39;62.24;100537.63;5055480;28;42054;-90
2022/01/14 14:45:42;;;;;;;12.37;7.13;;;;;;;6.26;62.46;100538.75;5074007;28;38836;-89
2022/01/14 14:48:09;;;;;;;10.53;6.20;;;;;;;6.26;62.67;100549.28;5056476;28;42053;-86
2022/01/14 14:50:38;;;;;;;14.00;6.67;;;;;;;6.28;63.18;100558.00;5057361;28;42905;-86
2022/01/14 14:53:08;;;;;;;10.33;6.10;;;;;;;6.19;63.37;100568.66;5053050;28;41182;-88
2022/01/14 14:55:36;;;;;;;9.67;5.30;;;;;;;6.06;63.86;100558.38;5037237;28;40071;-83
2022/01/14 14:58:04;;;;;;;8.53;5.30;;;;;;;6.05;63.60;100569.81;5052670;28;40723;-86
2022/01/14 15:00:32;;;;;;;9.00;5.90;;;;;;;5.89;64.08;100544.66;5037495;28;41824;-87
2022/01/14 15:03:02;;;;;;;12.83;5.97;;;;;;;5.89;63.99;100564.81;5064791;28;42244;-87
2022/01/14 15:05:29;;;;;;;11.20;6.77;;;;;;;5.81;64.14;100558.78;5070813;28;39038;-86
2022/01/14 15:07:57;;;;;;;8.93;5.17;;;;;;;5.74;63.68;100560.63;5042845;28;42066;-85
2022/01/14 15:10:27;;;;;;;10.60;5.17;;;;;;;5.65;64.12;100556.41;5042767;28;41993;-86
2022/01/14 15:12:54;;;;;;;10.70;5.97;;;;;;;5.50;64.75;100524.22;5055159;28;41415;-84
2022/01/14 15:15:35;;;;;;;9.63;5.27;;;;;;;5.37;64.66;100519.16;5072846;28;40039;-86
2022/01/14 15:18:13;;;;;;;11.30;5.80;;;;;;;5.26;64.48;100512.31;5054398;28;41742;-89
2022/01/14 15:20:42;;;;;;;10.50;4.97;;;;;;;5.10;64.73;100503.78;5056370;28;42712;-91
2022/01/14 15:23:11;;;;;;;9.60;4.70;;;;;;;5.09;64.80;100530.91;5051914;28;42750;-90
2022/01/14 15:25:41;;;;;;;8.70;5.00;;;;;;;4.85;64.41;100510.25;5069555;28;38959;-85
2022/01/14 15:28:09;;;;;;;9.27;5.43;;;;;;;4.78;64.87;100530.47;5055500;28;42038;-86
2022/01/14 15:30:37;;;;;;;10.40;5.67;;;;;;;4.44;66.22;100485.41;5071770;28;43687;-86
2022/01/14 15:33:05;;;;;;;7.53;4.43;;;;;;;4.37;66.09;100503.81;5054607;28;42321;-85
2022/01/14 15:35:34;;;;;;;11.60;6.43;;;;;;;4.41;67.03;100519.53;5056029;28;39899;-86
2022/01/14 15:38:05;;;;;;;10.73;5.70;;;;;;;4.43;68.22;100525.63;5067376;28;41986;-87
2022/01/14 15:40:37;;;;;;;12.43;6.67;;;;;;;4.19;67.67;100505.78;5054978;28;42261;-87
2022/01/14 15:43:06;;;;;;;10.20;5.43;;;;;;;4.26;67.31;100523.16;5054018;28;41360;-85
2022/01/14 15:45:36;;;;;;;11.97;6.57;;;;;;;4.16;67.58;100528.53;5053728;28;38569;-86
2022/01/14 15:48:04;;;;;;;7.77;4.53;;;;;;;4.02;68.09;100507.69;5069809;28;41398;-86
2022/01/14 15:50:33;;;;;;;10.20;5.40;;;;;;;4.01;68.39;100521.66;5053858;28;42199;-86
2022/01/14 15:53:02;;;;;;;10.63;5.87;;;;;;;3.96;68.01;100523.44;5053895;28;41103;-86
2022/01/14 15:55:43;;;;;;;;;;;;;;;;;;;;;
2022/01/14 15:58:15;;;;;;;9.63;4.63;;;;;;;3.90;68.38;100519.16;5065625;28;42664;-84
2022/01/14 16:00:43;;;;;;;10.93;5.63;;;;;;;3.88;68.25;100522.66;5069361;28;43664;-85
2022/01/14 16:03:11;;;;;;;9.37;4.53;;;;;;;3.76;68.67;100510.53;5051928;28;41323;-85
2022/01/14 16:05:38;;;;;;;9.00;5.33;;;;;;;3.77;69.70;100528.00;5052502;28;39078;-85
2022/01/14 16:08:06;;;;;;;9.70;5.97;;;;;;;3.80;69.75;100530.59;5052288;28;41110;-86
2022/01/14 16:10:34;;;;;;;11.77;5.83;;;;;;;3.71;69.45;100538.50;5053510;28;43198;-86
2022/01/14 16:13:05;;;;;;;7.97;4.70;;;;;;;3.55;69.15;100531.66;5052948;28;42232;-87
2022/01/14 16:15:35;;;;;;;9.83;5.40;;;;;;;3.59;70.74;100549.09;5053271;28;39290;-85
2022/01/14 16:18:04;;;;;;;10.37;5.47;;;;;;;3.51;71.35;100553.53;5052121;28;40519;-82
2022/01/14 16:20:32;;;;;;;13.27;5.80;;;;;;;3.41;72.58;100549.22;5069640;28;42612;-88
2022/01/14 16:23:00;;;;;;;10.53;5.93;;;;;;;3.20;72.75;100535.41;5069662;28;42948;-88
2022/01/14 16:25:29;;;;;;;10.47;5.73;;;;;;;2.84;71.79;100497.19;5054318;28;39275;-89
2022/01/14 16:27:57;;;;;;;10.77;6.43;;;;;;;3.00;72.97;100532.00;5052692;28;40964;-85
2022/01/14 16:30:26;;;;;;;10.53;5.40;;;;;;;3.10;73.42;100565.09;5053100;28;42284;-88
2022/01/14 16:32:55;;;;;;;11.80;5.33;;;;;;;3.03;73.99;100547.69;5070040;28;42502;-88
2022/01/14 16:35:24;;;;;;;10.00;5.20;;;;;;;3.00;73.59;100552.94;5053871;28;39053;-84
2022/01/14 16:37:51;;;;;;;8.73;5.30;;;;;;;2.98;73.92;100544.22;5053947;28;40906;-85
2022/01/14 16:40:19;;;;;;;7.80;4.50;;;;;;;2.97;73.27;100552.94;5052936;28;41674;-87
2022/01/14 16:42:47;;;;;;;11.00;6.00;;;;;;;2.86;73.09;100539.03;5053812;28;41052;-88
2022/01/14 16:45:16;;;;;;;7.33;3.73;;;;;;;2.82;73.01;100527.75;5051141;28;39315;-88
2022/01/14 16:47:44;;;;;;;11.07;5.43;;;;;;;2.85;73.17;100542.53;5052335;28;40826;-85
2022/01/14 16:50:14;;;;;;;10.30;6.27;;;;;;;2.44;74.26;100462.50;5050384;28;41434;-85
2022/01/14 16:52:42;;;;;;;10.60;5.83;;;;;;;2.81;73.62;100535.59;5052260;28;42263;-90
2022/01/14 16:55:11;;;;;;;8.00;5.33;;;;;;;2.68;73.64;100523.44;5053726;28;39698;-84
2022/01/14 16:57:40;;;;;;;10.30;5.50;;;;;;;2.80;74.09;100526.00;5069680;28;41507;-87
2022/01/14 17:00:12;;;;;;;10.07;5.77;;;;;;;2.68;73.94;100510.38;5037977;28;43112;-82
2022/01/14 17:02:40;;;;;;;10.77;5.57;;;;;;;2.71;73.87;100534.78;5070667;28;42243;-86
2022/01/14 17:05:10;;;;;;;8.47;4.73;;;;;;;2.58;73.41;100512.16;5073242;28;39806;-86
2022/01/14 17:07:41;;;;;;;10.40;5.03;;;;;;;2.40;73.17;100502.59;5049091;28;40732;-87
2022/01/14 17:10:10;;;;;;;7.97;4.50;;;;;;;2.53;73.55;100529.59;5053870;28;41782;-88
2022/01/14 17:12:40;;;;;;;6.97;3.93;;;;;;;2.57;74.03;100540.91;5049922;28;41360;-89
2022/01/14 17:15:09;;;;;;;9.03;4.90;;;;;;;2.39;74.05;100519.16;5054223;28;40394;-89
2022/01/14 17:17:37;;;;;;;6.03;4.00;;;;;;;2.52;74.44;100549.63;5049583;28;42023;-88
2022/01/14 17:20:07;;;;;;;6.87;4.43;;;;;;;2.50;75.83;100545.28;5053631;28;41827;-87
2022/01/14 17:22:34;;;;;;;10.90;5.90;;;;;;;2.47;75.45;100546.16;5052712;28;41458;-86
2022/01/14 17:25:04;;;;;;;7.97;4.60;;;;;;;2.38;75.20;100545.31;5075901;28;40055;-89
2022/01/14 17:27:32;;;;;;;10.03;5.00;;;;;;;2.47;75.12;100567.06;5056502;28;40860;-88
2022/01/14 17:29:59;;;;;;;8.40;4.53;;;;;;;2.36;74.96;100539.22;5062231;28;42085;-86
2022/01/14 17:32:28;;;;;;;10.07;4.90;;;;;;;2.29;75.11;100525.31;5075717;28;42049;-85
2022/01/14 17:34:56;;;;;;;8.67;4.47;;;;;;;2.30;74.99;100537.50;5076925;28;39127;-85
2022/01/14 17:37:24;;;;;;;7.10;4.13;;;;;;;2.28;75.44;100544.47;5075037;28;41952;-85
2022/01/14 17:39:52;;;;;;;8.23;5.07;;;;;;;2.38;75.08;100567.09;5076681;28;41668;-84
2022/01/14 17:42:23;;;;;;;7.53;4.90;;;;;;;2.16;75.71;100534.91;5074175;28;41023;-84
2022/01/14 17:44:51;;;;;;;7.60;4.70;;;;;;;2.32;75.98;100567.13;5073005;28;39652;-84
2022/01/14 17:47:19;;;;;;;12.57;7.03;;;;;;;2.17;76.06;100559.31;5064164;28;40695;-85
2022/01/14 17:49:49;;;;;;;12.37;6.10;;;;;;;2.17;76.65;100572.38;5065496;28;43210;-83
2022/01/14 17:52:17;;;;;;;9.27;5.00;;;;;;;2.15;76.41;100574.09;5060238;28;41133;-86
2022/01/14 17:54:51;;;;;;;8.27;5.33;;;;;;;2.04;77.17;100565.41;5063310;28;39413;-84
2022/01/14 17:57:19;;;;;;;10.50;5.97;;;;;;;2.09;77.30;100579.34;5061038;28;41917;-88
2022/01/14 17:59:48;;;;;;;8.27;4.20;;;;;;;2.07;77.15;100570.66;5073652;28;43720;-86
2022/01/14 18:02:15;;;;;;;10.27;5.53;;;;;;;2.08;76.95;100582.84;5072928;28;42130;-88
2022/01/14 18:04:43;;;;;;;8.20;4.20;;;;;;;2.00;76.61;100563.66;5073907;28;39545;-86
2022/01/14 18:07:11;;;;;;;10.70;5.00;;;;;;;2.02;77.14;100568.03;5052595;28;40804;-84
2022/01/14 18:09:43;;;;;;;11.47;5.23;;;;;;;2.12;77.07;100585.44;5057056;28;42883;-84
2022/01/14 18:12:19;;;;;;;8.80;4.23;;;;;;;2.04;77.06;100574.13;5055187;28;41029;-86
